createdAt,value
2023-03-21T00:00:48.943Z,47.70
2023-03-21T00:03:17.173Z,47.70
2023-03-21T00:05:49.874Z,47.60
2023-03-21T00:08:18.215Z,47.60
2023-03-21T00:10:46.184Z,47.60
2023-03-21T00:13:15.297Z,47.50
2023-03-21T00:16:04.450Z,47.50
2023-03-21T00:18:36.782Z,47.50
2023-03-21T00:23:56.798Z,47.60
2023-03-21T00:26:24.858Z,47.50
2023-03-21T00:28:52.949Z,47.50
2023-03-21T00:31:22.162Z,47.60
2023-03-21T00:33:51.724Z,47.70
2023-03-21T00:36:21.594Z,47.70
2023-03-21T00:38:49.780Z,47.70
2023-03-21T00:41:31.726Z,47.70
2023-03-21T00:44:06.267Z,47.80
2023-03-21T00:46:43.952Z,47.80
2023-03-21T00:49:13.547Z,47.90
2023-03-21T00:51:43.810Z,47.80
2023-03-21T00:54:13.635Z,47.80
2023-03-21T00:56:42.435Z,47.80
2023-03-21T00:59:11.547Z,47.90
2023-03-21T01:01:39.648Z,47.90
2023-03-21T01:04:13.733Z,48.00
2023-03-21T01:06:44.855Z,48.00
2023-03-21T01:09:17.664Z,48.10
2023-03-21T01:11:46.531Z,48.20
2023-03-21T01:14:22.466Z,48.20
2023-03-21T01:16:52.037Z,48.20
2023-03-21T01:19:27.634Z,48.20
2023-03-21T01:21:58.993Z,48.40
2023-03-21T01:24:27.219Z,48.40
2023-03-21T01:26:55.365Z,48.40
2023-03-21T01:29:23.514Z,48.50
2023-03-21T01:31:51.527Z,48.50
2023-03-21T01:34:19.458Z,48.50
2023-03-21T01:36:47.688Z,48.50
2023-03-21T01:39:21.513Z,48.50
2023-03-21T01:41:51.130Z,48.60
2023-03-21T01:44:22.201Z,48.60
2023-03-21T01:47:11.592Z,48.60
2023-03-21T01:49:58.127Z,48.70
2023-03-21T01:52:37.460Z,48.60
2023-03-21T01:55:19.877Z,48.70
2023-03-21T01:58:05.765Z,48.70
2023-03-21T02:00:58.536Z,48.70
2023-03-21T02:03:51.627Z,48.70
2023-03-21T02:06:31.744Z,48.80
2023-03-21T02:09:11.940Z,48.90
2023-03-21T02:11:46.441Z,49.00
2023-03-21T02:14:28.387Z,49.00
2023-03-21T02:17:17.747Z,48.90
2023-03-21T02:20:22.007Z,49.00
2023-03-21T02:23:21.297Z,49.10
2023-03-21T02:26:24.792Z,49.20
2023-03-21T02:29:03.026Z,49.30
2023-03-21T02:31:43.218Z,49.20
2023-03-21T02:34:51.653Z,49.30
2023-03-21T02:37:36.622Z,49.40
2023-03-21T02:40:11.377Z,49.30
2023-03-21T02:42:59.438Z,49.30
2023-03-21T02:45:33.863Z,49.40
2023-03-21T02:48:07.009Z,49.40
2023-03-21T02:50:42.538Z,49.30
2023-03-21T02:53:14.796Z,49.40
2023-03-21T02:55:44.871Z,49.40
2023-03-21T02:58:16.699Z,49.50
2023-03-21T03:00:55.410Z,49.40
2023-03-21T03:03:47.669Z,49.40
2023-03-21T03:06:20.850Z,49.40
2023-03-21T03:09:06.819Z,49.40
2023-03-21T03:11:37.430Z,49.30
2023-03-21T03:14:56.489Z,49.30
2023-03-21T03:17:35.926Z,49.60
2023-03-21T03:20:17.508Z,49.40
2023-03-21T03:22:54.308Z,49.50
2023-03-21T03:25:41.557Z,49.40
2023-03-21T03:28:11.628Z,49.50
2023-03-21T03:30:51.071Z,49.90
2023-03-21T03:33:30.834Z,49.50
2023-03-21T03:36:06.819Z,49.50
2023-03-21T03:38:39.867Z,49.60
2023-03-21T03:41:19.339Z,49.60
2023-03-21T03:43:55.476Z,49.70
2023-03-21T03:46:33.428Z,49.70
2023-03-21T03:49:06.358Z,49.60
2023-03-21T03:51:40.365Z,49.60
2023-03-21T03:54:21.180Z,49.60
2023-03-21T03:56:51.958Z,49.60
2023-03-21T03:59:21.918Z,49.60
2023-03-21T04:01:59.242Z,49.70
2023-03-21T04:04:29.368Z,49.70
2023-03-21T04:06:58.871Z,49.70
2023-03-21T04:09:42.550Z,49.70
2023-03-21T04:12:12.870Z,49.70
2023-03-21T04:14:47.240Z,49.70
2023-03-21T04:17:18.674Z,49.70
2023-03-21T04:19:46.618Z,49.70
2023-03-21T04:22:14.913Z,49.80
2023-03-21T04:24:45.126Z,49.90
2023-03-21T04:27:15.625Z,49.90
2023-03-21T04:29:48.674Z,49.90
2023-03-21T04:32:39.448Z,49.90
2023-03-21T04:35:14.850Z,49.90
2023-03-21T04:37:42.969Z,49.40
2023-03-21T04:40:17.794Z,49.80
2023-03-21T04:42:48.514Z,49.80
2023-03-21T04:45:18.163Z,49.90
2023-03-21T04:47:47.182Z,49.80
2023-03-21T04:50:15.987Z,49.80
2023-03-21T04:52:44.417Z,49.80
2023-03-21T04:55:12.492Z,49.90
2023-03-21T04:57:41.347Z,49.80
2023-03-21T05:00:13.843Z,49.80
2023-03-21T05:02:42.058Z,49.90
2023-03-21T05:05:12.138Z,49.90
2023-03-21T05:07:41.148Z,50.00
2023-03-21T05:10:12.041Z,50.40
2023-03-21T05:12:42.325Z,50.00
2023-03-21T05:15:12.124Z,50.00
2023-03-21T05:17:42.854Z,50.10
2023-03-21T05:20:12.532Z,50.10
2023-03-21T05:22:41.417Z,50.30
2023-03-21T05:25:14.194Z,50.40
2023-03-21T05:28:09.049Z,50.50
2023-03-21T05:30:38.951Z,50.50
2023-03-21T05:33:08.151Z,50.60
2023-03-21T05:35:36.421Z,51.10
2023-03-21T05:38:08.186Z,50.70
2023-03-21T05:40:48.522Z,50.80
2023-03-21T05:43:17.687Z,50.90
2023-03-21T05:45:48.546Z,50.80
2023-03-21T05:48:18.151Z,50.90
2023-03-21T05:51:06.361Z,50.90
2023-03-21T05:53:35.123Z,50.90
2023-03-21T05:56:03.275Z,51.00
2023-03-21T05:58:43.814Z,51.10
2023-03-21T06:01:13.677Z,51.10
2023-03-21T06:03:46.356Z,51.30
2023-03-21T06:06:18.073Z,51.40
2023-03-21T06:08:56.924Z,51.40
2023-03-21T06:11:28.302Z,51.40
2023-03-21T06:14:20.330Z,51.40
2023-03-21T06:17:06.116Z,51.40
2023-03-21T06:19:37.447Z,51.50
2023-03-21T06:22:12.882Z,51.40
2023-03-21T06:24:42.305Z,51.40
2023-03-21T06:27:10.366Z,51.80
2023-03-21T06:29:51.163Z,51.30
2023-03-21T06:32:21.234Z,51.30
2023-03-21T06:34:52.957Z,51.40
2023-03-21T06:37:21.274Z,51.30
2023-03-21T06:39:49.250Z,51.30
2023-03-21T06:42:17.309Z,51.30
2023-03-21T06:44:45.303Z,51.40
2023-03-21T06:47:16.212Z,51.40
2023-03-21T06:49:48.066Z,51.40
2023-03-21T06:52:16.221Z,51.40
2023-03-21T06:54:44.550Z,51.30
2023-03-21T06:57:13.920Z,51.40
2023-03-21T06:59:42.564Z,51.40
2023-03-21T07:02:33.004Z,51.40
2023-03-21T07:05:22.540Z,51.30
2023-03-21T07:07:50.510Z,51.30
2023-03-21T07:10:19.371Z,51.30
2023-03-21T07:12:54.317Z,51.20
2023-03-21T07:15:42.302Z,51.30
2023-03-21T07:18:11.085Z,51.30
2023-03-21T07:20:40.493Z,51.20
2023-03-21T07:23:09.366Z,51.30
2023-03-21T07:25:37.952Z,51.20
2023-03-21T07:28:09.126Z,51.20
2023-03-21T07:30:37.713Z,51.20
2023-03-21T07:33:06.004Z,51.20
2023-03-21T07:35:36.497Z,51.20
2023-03-21T07:38:06.759Z,51.30
2023-03-21T07:40:35.245Z,51.50
2023-03-21T07:43:03.546Z,51.50
2023-03-21T07:45:35.172Z,51.40
2023-03-21T07:48:05.396Z,51.30
2023-03-21T07:50:36.443Z,51.40
2023-03-21T07:53:05.949Z,51.30
2023-03-21T07:55:35.054Z,51.40
2023-03-21T07:58:03.456Z,51.50
2023-03-21T08:00:31.931Z,51.50
2023-03-21T08:03:00.415Z,51.60
2023-03-21T08:05:31.343Z,51.50
2023-03-21T08:07:59.409Z,51.50
2023-03-21T08:10:29.312Z,51.40
2023-03-21T08:12:57.345Z,51.30
2023-03-21T08:15:25.653Z,51.30
2023-03-21T08:17:53.669Z,51.40
2023-03-21T08:20:23.786Z,51.50
2023-03-21T08:22:52.272Z,51.50
2023-03-21T08:25:22.178Z,51.50
2023-03-21T08:27:52.483Z,51.90
2023-03-21T08:30:24.018Z,51.30
2023-03-21T08:32:52.338Z,51.20
2023-03-21T08:35:21.151Z,50.90
2023-03-21T08:37:49.200Z,50.90
2023-03-21T08:40:18.964Z,50.80
2023-03-21T08:42:47.695Z,50.80
2023-03-21T08:45:18.858Z,50.90
2023-03-21T08:47:47.198Z,51.00
2023-03-21T08:50:18.818Z,51.00
2023-03-21T08:52:47.140Z,51.00
2023-03-21T08:55:16.323Z,51.20
2023-03-21T08:57:44.941Z,51.20
2023-03-21T09:00:17.242Z,51.00
2023-03-21T09:02:48.331Z,51.00
2023-03-21T09:05:16.812Z,51.00
2023-03-21T09:07:45.007Z,51.00
2023-03-21T09:10:21.163Z,51.10
2023-03-21T09:12:50.924Z,51.10
2023-03-21T09:15:21.905Z,51.30
2023-03-21T09:17:53.213Z,51.30
2023-03-21T09:20:25.925Z,51.30
2023-03-21T09:22:54.652Z,51.10
2023-03-21T09:25:23.931Z,51.00
2023-03-21T09:27:52.367Z,51.00
2023-03-21T09:30:24.728Z,51.20
2023-03-21T09:32:55.915Z,51.30
2023-03-21T09:35:27.036Z,51.20
2023-03-21T09:37:57.534Z,51.50
2023-03-21T09:40:45.898Z,51.70
2023-03-21T09:43:28.011Z,51.70
2023-03-21T09:46:02.360Z,51.60
2023-03-21T09:48:50.528Z,51.50
2023-03-21T09:51:26.195Z,51.60
2023-03-21T09:53:57.192Z,51.60
2023-03-21T09:56:27.564Z,51.70
2023-03-21T09:58:59.281Z,51.70
2023-03-21T10:01:32.759Z,51.50
2023-03-21T10:04:06.337Z,51.70
2023-03-21T10:06:40.058Z,51.90
2023-03-21T10:09:14.360Z,52.00
2023-03-21T10:11:46.091Z,52.10
2023-03-21T10:14:20.563Z,52.20
2023-03-21T10:16:57.150Z,52.30
2023-03-21T10:19:29.600Z,52.20
2023-03-21T10:22:01.827Z,52.30
2023-03-21T10:24:34.886Z,52.30
2023-03-21T10:27:04.752Z,52.40
2023-03-21T10:29:38.423Z,52.20
2023-03-21T10:32:08.929Z,52.10
2023-03-21T10:34:43.509Z,52.10
2023-03-21T10:37:13.729Z,52.50
2023-03-21T10:39:44.646Z,52.60
2023-03-21T10:42:21.304Z,52.70
2023-03-21T10:44:51.438Z,52.90
2023-03-21T10:47:22.949Z,52.90
2023-03-21T10:50:09.836Z,52.80
2023-03-21T10:52:43.280Z,52.70
2023-03-21T10:55:21.679Z,52.50
2023-03-21T10:57:53.845Z,52.00
2023-03-21T11:00:25.818Z,52.00
2023-03-21T11:02:54.971Z,52.10
2023-03-21T11:05:27.138Z,51.90
2023-03-21T11:08:01.521Z,51.80
2023-03-21T11:10:32.615Z,51.60
2023-03-21T11:13:06.614Z,51.40
2023-03-21T11:15:42.592Z,51.60
2023-03-21T11:18:20.660Z,51.70
2023-03-21T11:20:56.446Z,51.60
2023-03-21T11:23:28.403Z,51.70
2023-03-21T11:25:58.372Z,51.60
2023-03-21T11:28:33.944Z,51.70
2023-03-21T11:31:04.442Z,51.80
2023-03-21T11:33:36.444Z,51.90
2023-03-21T11:36:08.175Z,51.90
2023-03-21T11:38:38.898Z,51.80
2023-03-21T11:41:08.473Z,51.60
2023-03-21T11:43:37.977Z,51.50
2023-03-21T11:46:11.138Z,51.50
2023-03-21T11:48:42.572Z,51.30
2023-03-21T11:51:21.856Z,51.30
2023-03-21T11:53:57.890Z,51.50
2023-03-21T11:56:29.289Z,51.60
2023-03-21T11:59:11.258Z,51.60
2023-03-21T12:01:49.415Z,51.70
2023-03-21T12:04:27.439Z,51.70
2023-03-21T12:07:03.911Z,51.70
2023-03-21T12:09:41.720Z,51.80
2023-03-21T12:12:38.476Z,51.80
2023-03-21T12:15:14.039Z,51.60
2023-03-21T12:17:50.538Z,51.60
2023-03-21T12:20:32.235Z,51.50
2023-03-21T12:23:45.808Z,51.50
2023-03-21T12:26:23.339Z,51.60
2023-03-21T12:29:13.524Z,51.60
2023-03-21T12:31:55.537Z,51.70
2023-03-21T12:34:40.918Z,51.70
2023-03-21T12:37:18.586Z,51.50
2023-03-21T12:39:49.703Z,51.40
2023-03-21T12:42:41.715Z,51.50
2023-03-21T12:45:16.851Z,51.60
2023-03-21T12:47:49.778Z,51.60
2023-03-21T12:50:25.673Z,51.60
2023-03-21T12:52:57.166Z,51.40
2023-03-21T12:55:30.822Z,51.60
2023-03-21T12:58:04.900Z,51.70
2023-03-21T13:00:37.731Z,51.70
2023-03-21T13:03:12.502Z,51.90
2023-03-21T13:05:45.677Z,52.00
2023-03-21T13:08:18.271Z,52.10
2023-03-21T13:10:48.150Z,52.80
2023-03-21T13:13:26.232Z,52.20
2023-03-21T13:16:01.624Z,52.30
2023-03-21T13:18:56.316Z,52.30
2023-03-21T13:21:32.759Z,52.40
2023-03-21T13:24:03.609Z,52.30
2023-03-21T13:26:40.627Z,52.20
2023-03-21T13:29:19.545Z,51.90
2023-03-21T13:31:52.440Z,52.00
2023-03-21T13:34:23.388Z,51.90
2023-03-21T13:36:53.358Z,51.80
2023-03-21T13:39:25.864Z,51.80
2023-03-21T13:41:56.631Z,51.60
2023-03-21T13:44:33.147Z,51.70
2023-03-21T13:47:03.556Z,51.80
2023-03-21T13:49:34.894Z,52.20
2023-03-21T13:52:21.879Z,52.30
2023-03-21T13:54:54.474Z,52.20
2023-03-21T13:57:39.228Z,52.10
2023-03-21T14:00:21.527Z,52.10
2023-03-21T14:02:57.905Z,52.00
2023-03-21T14:05:27.542Z,52.00
2023-03-21T14:08:06.017Z,52.00
2023-03-21T14:10:37.040Z,52.20
2023-03-21T14:13:07.364Z,52.40
2023-03-21T14:15:46.563Z,52.50
2023-03-21T14:18:28.106Z,52.70
2023-03-21T14:21:05.158Z,52.80
2023-03-21T14:23:35.155Z,52.60
2023-03-21T14:26:04.153Z,52.40
2023-03-21T14:28:36.307Z,52.30
2023-03-21T14:31:04.857Z,52.30
2023-03-21T14:33:36.344Z,52.10
2023-03-21T14:36:09.031Z,51.90
2023-03-21T14:38:39.922Z,51.90
2023-03-21T14:41:22.494Z,51.90
2023-03-21T14:44:04.469Z,51.80
2023-03-21T14:46:32.745Z,51.80
2023-03-21T14:49:12.481Z,51.80
2023-03-21T14:51:42.435Z,52.00
2023-03-21T14:54:14.546Z,52.50
2023-03-21T14:56:45.416Z,52.00
2023-03-21T14:59:17.347Z,51.80
2023-03-21T15:01:48.428Z,51.80
2023-03-21T15:04:18.183Z,52.00
2023-03-21T15:06:55.738Z,52.20
2023-03-21T15:09:28.083Z,52.10
2023-03-21T15:11:57.824Z,52.10
2023-03-21T15:14:31.471Z,51.80
2023-03-21T15:17:02.039Z,52.00
2023-03-21T15:19:33.438Z,52.00
2023-03-21T15:22:11.228Z,51.90
2023-03-21T15:24:42.287Z,51.80
2023-03-21T15:27:16.141Z,51.60
2023-03-21T15:29:46.482Z,51.40
2023-03-21T15:32:18.078Z,51.50
2023-03-21T15:34:47.081Z,51.60
2023-03-21T15:37:18.800Z,51.70
2023-03-21T15:39:49.312Z,51.60
2023-03-21T15:42:28.089Z,51.50
2023-03-21T15:45:02.344Z,51.40
2023-03-21T15:47:51.474Z,51.50
2023-03-21T15:50:27.901Z,51.80
2023-03-21T15:52:57.078Z,51.60
2023-03-21T15:55:28.959Z,51.50
2023-03-21T15:58:01.991Z,51.30
2023-03-21T16:00:40.512Z,51.30
2023-03-21T16:03:14.158Z,51.40
2023-03-21T16:05:42.405Z,51.50
2023-03-21T16:08:21.726Z,51.60
2023-03-21T16:10:49.978Z,51.80
2023-03-21T16:13:18.541Z,51.80
2023-03-21T16:15:47.843Z,51.80
2023-03-21T16:18:17.234Z,51.90
2023-03-21T16:20:49.158Z,51.90
2023-03-21T16:23:17.577Z,51.80
2023-03-21T16:25:46.958Z,51.70
2023-03-21T16:28:16.468Z,51.50
2023-03-21T16:30:44.387Z,51.50
2023-03-21T16:33:14.474Z,51.50
2023-03-21T16:35:42.921Z,51.40
2023-03-21T16:38:11.791Z,51.40
2023-03-21T16:40:43.389Z,51.40
2023-03-21T16:43:12.336Z,52.00
2023-03-21T16:45:40.411Z,51.90
2023-03-21T16:48:12.254Z,52.10
2023-03-21T16:50:43.913Z,52.00
2023-03-21T16:53:11.774Z,51.90
2023-03-21T16:55:40.033Z,51.80
2023-03-21T16:58:08.375Z,51.70
2023-03-21T17:00:37.471Z,51.60
2023-03-21T17:03:15.942Z,51.50
2023-03-21T17:05:45.381Z,51.10
2023-03-21T17:08:18.794Z,51.10
2023-03-21T17:10:47.608Z,50.90
2023-03-21T17:13:16.091Z,50.70
2023-03-21T17:15:44.060Z,50.40
2023-03-21T17:18:13.134Z,50.20
2023-03-21T17:20:41.813Z,50.00
2023-03-21T17:23:11.990Z,49.90
2023-03-21T17:25:40.203Z,49.70
2023-03-21T17:28:08.726Z,49.80
2023-03-21T17:30:40.183Z,49.80
2023-03-21T17:33:08.640Z,49.90
2023-03-21T17:35:37.275Z,50.00
2023-03-21T17:38:05.975Z,50.00
2023-03-21T17:40:35.590Z,50.00
2023-03-21T17:43:03.554Z,50.10
2023-03-21T17:45:31.744Z,50.30
2023-03-21T17:47:59.777Z,50.40
2023-03-21T17:50:34.113Z,50.40
2023-03-21T17:53:02.290Z,50.50
2023-03-21T17:55:31.524Z,50.50
2023-03-21T17:58:00.907Z,50.70
2023-03-21T18:00:30.959Z,50.70
2023-03-21T18:02:59.529Z,50.70
2023-03-21T18:05:27.570Z,50.80
2023-03-21T18:08:12.753Z,50.90
2023-03-21T18:10:42.298Z,50.90
2023-03-21T18:13:12.361Z,50.90
2023-03-21T18:15:44.181Z,51.10
2023-03-21T18:18:13.097Z,51.00
2023-03-21T18:20:58.379Z,51.10
2023-03-21T18:23:26.850Z,51.20
2023-03-21T18:25:54.944Z,51.70
2023-03-21T18:28:24.385Z,51.30
2023-03-21T18:31:08.592Z,51.50
2023-03-21T18:33:40.622Z,51.60
2023-03-21T18:36:09.753Z,51.70
2023-03-21T18:38:38.283Z,51.80
2023-03-21T18:41:07.623Z,51.90
2023-03-21T18:46:26.185Z,52.10
2023-03-21T18:48:55.227Z,52.10
2023-03-21T18:51:23.558Z,52.20
2023-03-21T18:53:51.586Z,52.20
2023-03-21T18:57:05.790Z,52.30
2023-03-21T18:59:09.358Z,52.30
2023-03-21T19:01:37.542Z,52.30
2023-03-21T19:04:20.761Z,52.30
2023-03-21T19:06:51.620Z,52.40
2023-03-21T19:09:19.939Z,52.50
2023-03-21T19:11:47.924Z,52.60
2023-03-21T19:14:18.437Z,52.70
2023-03-21T19:17:32.700Z,52.90
2023-03-21T19:19:35.135Z,53.00
2023-03-21T19:22:03.557Z,53.00
2023-03-21T19:24:31.469Z,53.50
2023-03-21T19:26:59.705Z,53.20
2023-03-21T19:29:29.074Z,53.30
2023-03-21T19:31:57.376Z,53.50
2023-03-21T19:34:26.530Z,53.40
2023-03-21T19:36:54.927Z,53.50
2023-03-21T19:39:24.033Z,53.60
2023-03-21T19:41:55.459Z,53.60
2023-03-21T19:44:33.333Z,53.70
2023-03-21T19:47:01.422Z,53.80
2023-03-21T19:49:52.180Z,53.70
2023-03-21T19:52:20.518Z,53.70
2023-03-21T19:54:48.555Z,53.80
2023-03-21T19:57:17.093Z,53.80
2023-03-21T19:59:47.387Z,53.80
2023-03-21T20:02:34.574Z,53.90
2023-03-21T20:05:03.503Z,53.90
2023-03-21T20:07:32.985Z,53.90
2023-03-21T20:10:01.153Z,54.00
2023-03-21T20:12:29.299Z,54.00
2023-03-21T20:15:10.378Z,53.90
2023-03-21T20:17:44.705Z,54.00
2023-03-21T20:20:17.261Z,54.00
2023-03-21T20:23:07.382Z,54.00
2023-03-21T20:25:36.528Z,54.00
2023-03-21T20:28:25.794Z,54.00
2023-03-21T20:30:58.413Z,54.00
2023-03-21T20:33:26.752Z,54.00
2023-03-21T20:38:50.845Z,54.10
2023-03-21T20:41:19.026Z,54.10
2023-03-21T20:44:34.412Z,54.20
2023-03-21T20:46:37.694Z,54.20
2023-03-21T20:49:07.360Z,54.20
2023-03-21T20:54:24.063Z,54.20
2023-03-21T20:56:52.009Z,54.20
2023-03-21T20:59:26.552Z,54.10
2023-03-21T21:01:58.008Z,54.10
2023-03-21T21:04:46.665Z,54.10
2023-03-21T21:07:17.947Z,54.10
2023-03-21T21:09:47.392Z,54.00
2023-03-21T21:12:18.941Z,54.10
2023-03-21T21:14:47.988Z,54.10
2023-03-21T21:20:16.432Z,54.20
2023-03-21T21:22:58.081Z,54.30
2023-03-21T21:25:27.714Z,54.30
2023-03-21T21:27:55.644Z,54.40
2023-03-21T21:30:23.972Z,54.40
2023-03-21T21:32:54.022Z,54.50
2023-03-21T21:35:22.632Z,54.60
2023-03-21T21:37:51.133Z,54.60
2023-03-21T21:40:23.333Z,54.60
2023-03-21T21:42:51.554Z,54.70
2023-03-21T21:45:20.264Z,54.80
2023-03-21T21:47:48.382Z,54.80
2023-03-21T21:50:18.420Z,55.00
2023-03-21T21:52:52.851Z,55.10
2023-03-21T21:55:21.359Z,55.00
2023-03-21T21:57:50.975Z,55.10
2023-03-21T22:00:20.788Z,54.90
2023-03-21T22:02:48.909Z,54.90
2023-03-21T22:05:18.871Z,54.90
2023-03-21T22:07:47.089Z,54.90
2023-03-21T22:10:15.771Z,54.90
2023-03-21T22:12:43.846Z,55.00
2023-03-21T22:15:13.073Z,55.00
2023-03-21T22:17:42.038Z,55.00
2023-03-21T22:20:12.744Z,55.00
2023-03-21T22:22:42.821Z,54.90
2023-03-21T22:25:12.956Z,55.00
2023-03-21T22:27:41.222Z,54.90
2023-03-21T22:30:13.836Z,54.90
2023-03-21T22:32:42.498Z,54.90
2023-03-21T22:35:11.617Z,54.90
2023-03-21T22:37:42.869Z,54.90
2023-03-21T22:40:13.148Z,55.00
2023-03-21T22:42:41.558Z,54.90
2023-03-21T22:45:11.572Z,54.80
2023-03-21T22:47:39.866Z,54.70
2023-03-21T22:50:09.538Z,55.00
2023-03-21T22:52:37.371Z,55.10
2023-03-21T22:55:09.819Z,54.90
2023-03-21T22:57:37.788Z,54.90
2023-03-21T23:00:13.131Z,54.90
2023-03-21T23:02:41.649Z,54.90
2023-03-21T23:05:10.429Z,54.80
2023-03-21T23:07:38.440Z,54.80
2023-03-21T23:10:11.976Z,54.80
2023-03-21T23:12:40.269Z,54.80
2023-03-21T23:15:10.129Z,54.80
2023-03-21T23:17:38.237Z,54.70
2023-03-21T23:20:07.235Z,54.80
2023-03-21T23:22:36.096Z,54.80
2023-03-21T23:25:04.620Z,54.70
2023-03-21T23:27:35.265Z,54.70
2023-03-21T23:30:04.909Z,54.60
2023-03-21T23:32:32.876Z,54.60
2023-03-21T23:35:01.025Z,54.60
2023-03-21T23:37:29.947Z,54.70
2023-03-21T23:39:58.150Z,55.00
2023-03-21T23:42:26.991Z,54.60
2023-03-21T23:44:57.284Z,54.60
2023-03-21T23:47:25.231Z,54.60
2023-03-21T23:49:53.503Z,54.60
2023-03-21T23:52:22.609Z,54.70
2023-03-21T23:54:50.822Z,54.70
2023-03-21T23:57:18.987Z,54.70
2023-03-21T23:59:47.222Z,54.70
